Time;durP1;ratioP1;P1;durP2;ratioP2;P2;SDS_P1;SDS_P2;PMS_P1;PMS_P2;Temp;Humidity;BMP_temperature;BMP_pressure;BME280_temperature;BME280_humidity;BME280_pressure;Samples;Min_cycle;Max_cycle;Signal;HPM_P1;HPM_P2
2023/03/05 00:00:14;;;;;;;16.27;2.20;;;;;;;3.77;90.82;101919.31;5012541;28;20174;-74
2023/03/05 00:02:41;;;;;;;19.08;2.05;;;;;;;3.69;91.28;101907.78;5046404;28;20029;-75
2023/03/05 00:05:07;;;;;;;12.70;2.08;;;;;;;3.67;91.50;101906.19;5047270;28;20032;-75
2023/03/05 00:07:33;;;;;;;9.68;2.08;;;;;;;3.67;92.08;101913.88;5044016;28;20402;-74
2023/03/05 00:10:04;;;;;;;7.95;2.40;;;;;;;3.66;92.02;101905.34;5007331;28;20048;-74
2023/03/05 00:12:30;;;;;;;14.73;1.55;;;;;;;3.65;92.46;101903.69;5046738;28;20026;-74
2023/03/05 00:14:56;;;;;;;13.27;1.85;;;;;;;3.71;92.13;101910.22;5025410;28;20648;-74
2023/03/05 00:17:21;;;;;;;12.88;2.08;;;;;;;3.83;91.16;101901.88;5043926;28;20032;-74
2023/03/05 00:19:47;;;;;;;12.77;1.95;;;;;;;3.79;91.49;101899.56;5022585;28;20034;-74
2023/03/05 00:22:12;;;;;;;9.30;1.85;;;;;;;3.73;91.81;101900.72;5026019;28;20032;-75
2023/03/05 00:24:38;;;;;;;11.07;1.85;;;;;;;3.82;91.19;101899.38;5038642;28;20034;-74
2023/03/05 00:27:03;;;;;;;11.73;1.88;;;;;;;3.87;91.56;101907.66;5037738;28;20039;-75
2023/03/05 00:29:29;;;;;;;15.45;2.22;;;;;;;3.79;91.27;101897.00;5029570;28;20925;-75
2023/03/05 00:31:55;;;;;;;16.63;2.15;;;;;;;3.82;91.81;101900.19;5029735;28;20549;-74
2023/03/05 00:34:21;;;;;;;7.25;2.00;;;;;;;3.75;90.54;101891.22;5045655;28;20044;-74
2023/03/05 00:36:51;;;;;;;7.35;1.83;;;;;;;3.82;90.72;101894.25;5030844;28;20112;-74
2023/03/05 00:39:18;;;;;;;13.93;1.88;;;;;;;3.86;90.69;101888.88;5005826;28;20044;-74
2023/03/05 00:41:44;;;;;;;11.45;1.60;;;;;;;3.80;90.84;101885.81;5037495;28;20108;-74
2023/03/05 00:44:10;;;;;;;7.45;1.40;;;;;;;3.69;90.57;101889.81;5042614;28;20129;-75
2023/03/05 00:46:36;;;;;;;12.60;1.65;;;;;;;3.67;90.80;101885.66;5022326;28;20040;-74
2023/03/05 00:49:02;;;;;;;14.57;2.00;;;;;;;3.64;90.50;101886.66;5021441;28;20032;-74
2023/03/05 00:51:28;;;;;;;7.18;1.10;;;;;;;3.58;90.86;101883.59;5038303;28;20407;-74
2023/03/05 00:53:54;;;;;;;11.00;1.88;;;;;;;3.59;91.30;101880.94;5040304;28;20045;-74
2023/03/05 00:56:20;;;;;;;14.32;1.60;;;;;;;3.55;91.71;101879.47;5051127;23;20101;-76
2023/03/05 00:58:45;;;;;;;15.05;2.17;;;;;;;3.54;91.60;101877.78;5028223;28;20109;-76
2023/03/05 01:01:11;;;;;;;9.18;2.10;;;;;;;3.56;91.54;101873.44;5030518;28;20551;-76
2023/03/05 01:03:37;;;;;;;9.98;1.75;;;;;;;3.55;91.50;101871.78;5044850;28;20071;-76
2023/03/05 01:06:07;;;;;;;13.07;2.50;;;;;;;3.50;91.95;101871.19;5029988;28;20045;-76
2023/03/05 01:08:34;;;;;;;17.90;2.00;;;;;;;3.50;92.60;101874.59;5026160;28;20041;-76
2023/03/05 01:11:00;;;;;;;9.45;1.80;;;;;;;3.53;92.03;101871.03;5024012;28;20025;-76
2023/03/05 01:13:26;;;;;;;7.22;1.77;;;;;;;3.50;92.59;101871.19;5042009;28;20613;-76
2023/03/05 01:15:51;;;;;;;9.60;2.03;;;;;;;3.49;92.66;101867.81;5037969;28;20090;-76
2023/03/05 01:18:18;;;;;;;11.75;2.13;;;;;;;3.49;93.11;101856.72;5015466;28;20626;-76
2023/03/05 01:20:44;;;;;;;13.38;3.15;;;;;;;3.43;93.40;101859.63;5023418;28;20071;-76
2023/03/05 01:23:10;;;;;;;8.70;1.88;;;;;;;3.43;93.27;101862.19;5009755;28;20067;-76
2023/03/05 01:25:35;;;;;;;5.90;1.95;;;;;;;3.44;93.70;101858.72;5003908;28;20022;-76
2023/03/05 01:28:01;;;;;;;16.55;1.90;;;;;;;3.45;93.43;101850.13;5027214;28;20108;-76
2023/03/05 01:30:27;;;;;;;11.05;2.22;;;;;;;3.49;93.03;101846.47;5011780;28;20557;-76
2023/03/05 01:32:54;;;;;;;10.68;2.97;;;;;;;3.50;92.96;101843.81;5010380;28;20414;-76
2023/03/05 01:35:21;;;;;;;22.10;2.63;;;;;;;3.58;92.88;101840.84;5043202;28;20025;-76
2023/03/05 01:37:47;;;;;;;13.30;2.10;;;;;;;3.59;93.25;101839.09;5031638;28;20033;-76
2023/03/05 01:40:14;;;;;;;12.13;2.40;;;;;;;3.54;92.73;101839.31;5047992;28;20035;-76
2023/03/05 01:42:45;;;;;;;17.27;2.15;;;;;;;3.48;93.13;101831.97;5011700;28;20025;-76
2023/03/05 01:45:17;;;;;;;11.70;2.05;;;;;;;3.43;94.00;101828.88;5028459;28;20037;-76
2023/03/05 01:47:43;;;;;;;11.68;1.63;;;;;;;3.42;94.20;101830.56;5030316;28;20025;-76
2023/03/05 01:50:13;;;;;;;10.93;2.13;;;;;;;3.47;93.83;101833.72;5019785;28;20415;-76
2023/03/05 01:52:42;;;;;;;15.93;3.03;;;;;;;3.51;93.67;101830.06;5029367;28;20043;-76
2023/03/05 01:55:15;;;;;;;23.23;3.35;;;;;;;3.43;94.25;101822.00;5010720;28;20025;-76
2023/03/05 01:57:52;;;;;;;11.77;3.15;;;;;;;3.44;94.32;101817.69;5049828;28;20058;-76
2023/03/05 02:00:24;;;;;;;15.15;2.70;;;;;;;3.65;94.33;101820.78;5030914;28;20059;-76
2023/03/05 02:02:50;;;;;;;14.73;3.10;;;;;;;3.46;94.49;101816.66;5046113;28;20028;-76
2023/03/05 02:05:25;;;;;;;17.35;2.70;;;;;;;3.38;94.79;101808.59;5048497;28;20043;-76
2023/03/05 02:07:56;;;;;;;8.15;2.60;;;;;;;3.33;95.27;101802.88;5049528;28;20029;-76
2023/03/05 02:10:25;;;;;;;11.85;2.47;;;;;;;3.39;95.73;101802.56;5032524;28;20127;-76
2023/03/05 02:12:53;;;;;;;14.23;2.70;;;;;;;3.44;95.15;101799.72;5051210;28;20033;-76
2023/03/05 02:15:19;;;;;;;16.75;2.63;;;;;;;3.34;95.64;101790.91;5052146;28;20612;-76
2023/03/05 02:17:45;;;;;;;23.75;3.88;;;;;;;3.41;95.03;101793.03;5030855;28;20040;-76
2023/03/05 02:20:26;;;;;;;10.93;2.00;;;;;;;3.40;95.17;101796.50;5049776;28;20037;-76
2023/03/05 02:22:51;;;;;;;8.63;1.75;;;;;;;3.37;95.39;101780.47;5030688;28;20021;-76
2023/03/05 02:25:21;;;;;;;10.57;1.98;;;;;;;3.36;95.53;101783.94;5044764;28;20820;-76
2023/03/05 02:27:56;;;;;;;8.02;1.75;;;;;;;3.31;96.06;101786.75;5026079;28;20025;-76
2023/03/05 02:30:22;;;;;;;6.00;1.60;;;;;;;3.25;96.45;101776.84;5027625;28;20029;-76
2023/03/05 02:32:48;;;;;;;5.70;1.67;;;;;;;3.21;96.85;101771.06;5043529;28;20123;-76
2023/03/05 02:35:13;;;;;;;16.80;2.35;;;;;;;3.23;96.60;101774.38;5030737;28;20386;-76
2023/03/05 02:37:39;;;;;;;16.73;2.30;;;;;;;3.22;96.96;101774.44;5045934;28;20037;-76
2023/03/05 02:40:07;;;;;;;14.73;1.98;;;;;;;3.25;96.95;101769.97;5060387;28;20090;-76
2023/03/05 02:42:33;;;;;;;10.45;1.77;;;;;;;3.31;96.80;101769.66;5049037;28;20588;-76
2023/03/05 02:45:00;;;;;;;16.17;3.75;;;;;;;3.25;97.04;101764.03;5047761;28;20032;-76
2023/03/05 02:47:27;;;;;;;13.38;2.03;;;;;;;3.42;96.85;101763.09;5037226;28;20085;-76
2023/03/05 02:49:53;;;;;;;11.27;2.28;;;;;;;3.38;95.96;101757.31;5051814;28;20037;-76
2023/03/05 02:52:19;;;;;;;14.65;2.20;;;;;;;3.36;96.22;101755.75;5035171;28;20032;-76
2023/03/05 02:54:44;;;;;;;8.35;2.42;;;;;;;3.24;96.72;101755.53;5033656;28;20502;-76
2023/03/05 02:57:10;;;;;;;10.02;2.17;;;;;;;3.20;97.38;101753.19;5052302;28;20036;-76
2023/03/05 02:59:35;;;;;;;14.95;2.25;;;;;;;3.16;97.38;101747.41;5032509;28;21452;-76
2023/03/05 03:02:01;;;;;;;10.07;2.05;;;;;;;3.14;98.09;101749.22;5040763;28;20021;-76
2023/03/05 03:04:27;;;;;;;16.60;2.70;;;;;;;3.13;98.01;101739.91;5055562;28;20494;-76
2023/03/05 03:06:52;;;;;;;10.23;2.55;;;;;;;3.09;98.15;101743.56;5053954;28;20431;-76
2023/03/05 03:09:18;;;;;;;14.50;2.20;;;;;;;3.09;98.89;101741.81;5036284;28;20131;-76
2023/03/05 03:11:43;;;;;;;8.48;2.85;;;;;;;3.08;98.82;101737.56;5049696;28;20031;-75
2023/03/05 03:14:08;;;;;;;12.43;2.03;;;;;;;3.08;99.03;101737.56;5036786;28;20036;-76
2023/03/05 03:16:34;;;;;;;13.77;3.08;;;;;;;3.10;99.39;101730.63;5053801;28;20047;-76
2023/03/05 03:18:59;;;;;;;8.60;2.00;;;;;;;3.10;99.63;101727.25;5036300;28;20052;-76
2023/03/05 03:21:25;;;;;;;13.35;2.40;;;;;;;3.10;99.71;101732.38;5053821;28;20048;-76
2023/03/05 03:23:51;;;;;;;15.00;2.20;;;;;;;3.09;99.69;101725.63;5031832;28;20029;-76
2023/03/05 03:26:18;;;;;;;9.88;2.13;;;;;;;3.12;99.37;101720.31;5070275;28;20505;-76
2023/03/05 03:28:44;;;;;;;16.17;3.03;;;;;;;3.06;98.92;101716.34;5048769;28;20043;-76
2023/03/05 03:31:09;;;;;;;10.48;2.10;;;;;;;3.09;99.48;101717.94;5063142;28;20039;-76
2023/03/05 03:33:35;;;;;;;19.77;3.85;;;;;;;3.08;99.17;101706.81;5034019;28;20032;-76
2023/03/05 03:36:01;;;;;;;10.75;2.33;;;;;;;3.14;98.81;101713.34;5066444;28;20028;-76
2023/03/05 03:38:26;;;;;;;7.70;1.92;;;;;;;3.12;98.42;101710.03;5048642;28;20040;-76
2023/03/05 03:40:52;;;;;;;9.68;1.80;;;;;;;3.14;98.38;101703.09;5051278;28;20039;-76
2023/03/05 03:43:17;;;;;;;9.93;2.13;;;;;;;3.07;98.53;101701.78;5052122;28;20033;-76
2023/03/05 03:45:43;;;;;;;14.93;2.72;;;;;;;3.13;98.28;101701.47;5033788;28;20051;-76
2023/03/05 03:48:09;;;;;;;11.35;2.53;;;;;;;3.10;98.52;101701.63;5050863;28;20064;-76
2023/03/05 03:50:39;;;;;;;6.95;1.90;;;;;;;3.09;98.40;101699.97;5032817;28;20056;-76
2023/03/05 03:53:05;;;;;;;11.23;1.95;;;;;;;3.01;98.65;101697.00;5065225;28;20064;-76
2023/03/05 03:55:30;;;;;;;8.82;1.70;;;;;;;3.00;98.61;101696.19;5046510;28;20029;-76
2023/03/05 03:57:56;;;;;;;9.88;1.95;;;;;;;2.99;98.04;101691.94;5034431;28;20036;-76
2023/03/05 04:00:21;;;;;;;10.88;2.35;;;;;;;2.99;98.07;101686.84;5045391;28;20037;-76
2023/03/05 04:02:47;;;;;;;9.27;1.85;;;;;;;2.93;98.53;101688.00;5029570;28;20120;-76
2023/03/05 04:05:13;;;;;;;10.07;2.47;;;;;;;2.91;98.22;101676.19;5046031;28;20402;-76
2023/03/05 04:07:38;;;;;;;8.30;1.80;;;;;;;2.92;98.46;101673.56;5048925;28;20040;-76
2023/03/05 04:10:04;;;;;;;12.73;2.20;;;;;;;2.91;97.90;101671.88;5046726;28;20032;-76
2023/03/05 04:12:30;;;;;;;11.88;2.20;;;;;;;2.93;97.69;101674.38;5028225;28;20452;-76
2023/03/05 04:14:55;;;;;;;14.27;2.17;;;;;;;2.88;97.57;101674.63;5030030;28;20035;-76
2023/03/05 04:17:21;;;;;;;7.15;1.50;;;;;;;2.88;97.97;101673.78;5045636;28;20037;-76
2023/03/05 04:19:46;;;;;;;9.13;1.50;;;;;;;2.92;97.72;101671.00;5038478;28;20044;-76
2023/03/05 04:22:13;;;;;;;20.17;2.75;;;;;;;2.92;97.62;101667.59;5038712;28;20032;-76
2023/03/05 04:24:39;;;;;;;12.88;2.65;;;;;;;2.92;97.82;101659.91;5048777;28;20032;-76
2023/03/05 04:27:06;;;;;;;14.25;3.95;;;;;;;2.87;98.19;101662.72;5033012;28;20028;-76
2023/03/05 04:29:32;;;;;;;13.77;2.47;;;;;;;2.84;98.31;101656.94;5049018;28;20032;-76
2023/03/05 04:31:57;;;;;;;11.35;2.10;;;;;;;2.85;99.04;101653.47;5028066;28;20395;-76
2023/03/05 04:34:23;;;;;;;17.23;3.25;;;;;;;2.81;98.91;101650.25;5047974;28;20036;-76
2023/03/05 04:36:48;;;;;;;10.95;2.53;;;;;;;2.89;99.12;101649.84;5033279;28;20045;-76
2023/03/05 04:39:14;;;;;;;7.18;2.35;;;;;;;2.89;98.89;101649.84;5030587;28;20093;-76
2023/03/05 04:41:40;;;;;;;15.90;3.28;;;;;;;2.91;98.72;101646.25;5036927;28;20032;-76
2023/03/05 04:44:06;;;;;;;17.10;2.33;;;;;;;2.84;98.53;101646.69;5027209;28;20074;-76
2023/03/05 04:46:31;;;;;;;8.15;2.05;;;;;;;2.88;98.38;101640.47;5063239;28;20060;-76
2023/03/05 04:48:57;;;;;;;14.38;2.42;;;;;;;2.79;98.82;101636.72;5045135;28;20581;-76
2023/03/05 04:51:23;;;;;;;13.32;2.50;;;;;;;2.85;98.80;101643.22;5062951;28;20024;-76
2023/03/05 04:53:48;;;;;;;14.50;4.05;;;;;;;2.84;98.27;101634.69;5062922;28;20063;-76
2023/03/05 04:56:14;;;;;;;9.13;2.20;;;;;;;2.88;98.06;101635.34;5028883;28;20067;-77
2023/03/05 04:58:39;;;;;;;16.05;2.75;;;;;;;2.76;98.47;101624.06;5034163;28;20036;-76
2023/03/05 05:01:06;;;;;;;14.60;2.50;;;;;;;2.80;98.67;101624.72;5047313;28;20020;-76
2023/03/05 05:03:31;;;;;;;10.48;2.42;;;;;;;2.78;98.39;101613.75;5064707;28;20537;-76
2023/03/05 05:05:58;;;;;;;9.05;2.67;;;;;;;2.67;98.43;101607.47;5044536;28;20087;-77
2023/03/05 05:08:25;;;;;;;16.23;2.88;;;;;;;2.74;98.40;101613.09;5043865;28;20041;-76
2023/03/05 05:10:59;;;;;;;15.07;2.33;;;;;;;2.72;98.33;101604.66;5049580;28;20028;-76
2023/03/05 05:13:25;;;;;;;13.18;2.10;;;;;;;2.80;98.20;101610.16;5025983;28;20043;-76
2023/03/05 05:15:51;;;;;;;13.35;2.60;;;;;;;2.70;98.25;101611.59;5049001;28;20119;-76
2023/03/05 05:18:16;;;;;;;11.77;2.13;;;;;;;2.65;98.31;101609.28;5037068;28;20037;-76
2023/03/05 05:20:42;;;;;;;9.00;2.10;;;;;;;2.68;98.11;101600.63;5051445;28;20107;-76
2023/03/05 05:23:07;;;;;;;11.50;2.05;;;;;;;2.65;98.26;101603.34;5031738;28;20404;-76
2023/03/05 05:25:33;;;;;;;13.13;2.13;;;;;;;2.67;98.06;101610.03;5049955;28;20033;-77
2023/03/05 05:27:58;;;;;;;9.68;2.08;;;;;;;2.62;98.29;101609.47;5033144;28;20398;-76
2023/03/05 05:30:24;;;;;;;10.98;2.30;;;;;;;2.63;97.88;101611.09;5047163;28;20024;-76
2023/03/05 05:32:49;;;;;;;10.35;2.10;;;;;;;2.65;98.01;101601.59;5057448;28;20028;-76
2023/03/05 05:35:15;;;;;;;6.70;1.63;;;;;;;2.65;97.69;101604.16;5030720;28;20033;-76
2023/03/05 05:37:40;;;;;;;8.20;2.47;;;;;;;2.61;97.69;101607.81;5028486;28;20032;-76
2023/03/05 05:40:07;;;;;;;16.30;2.80;;;;;;;2.61;97.40;101607.81;5024389;28;20036;-76
2023/03/05 05:42:33;;;;;;;9.13;2.08;;;;;;;2.61;97.17;101609.56;5062357;28;20037;-76
2023/03/05 05:44:59;;;;;;;6.00;3.17;;;;;;;2.61;97.50;101599.31;5058823;28;20082;-76
2023/03/05 05:47:24;;;;;;;11.77;2.22;;;;;;;2.62;97.69;101609.47;5044937;28;20425;-76
2023/03/05 05:49:50;;;;;;;10.30;2.00;;;;;;;2.56;97.81;101604.66;5043393;28;20047;-76
2023/03/05 05:52:16;;;;;;;12.20;2.55;;;;;;;2.57;97.86;101593.53;5044823;28;20094;-77
2023/03/05 05:54:41;;;;;;;10.18;1.92;;;;;;;2.56;97.97;101593.59;5059306;28;20041;-76
2023/03/05 05:57:07;;;;;;;8.60;2.20;;;;;;;2.54;98.29;101593.69;5045880;28;20035;-77
2023/03/05 05:59:32;;;;;;;9.55;2.05;;;;;;;2.57;98.09;101597.84;5041469;28;20509;-77
2023/03/05 06:01:58;;;;;;;6.35;2.10;;;;;;;2.55;98.09;101589.41;5044872;28;20033;-76
2023/03/05 06:04:23;;;;;;;11.15;3.13;;;;;;;2.53;98.47;101590.31;5043234;28;20025;-76
2023/03/05 06:06:49;;;;;;;9.40;2.13;;;;;;;2.52;98.76;101592.94;5028047;28;20413;-76
2023/03/05 06:09:14;;;;;;;15.00;4.07;;;;;;;2.51;98.42;101594.69;5029847;28;20040;-76
2023/03/05 06:11:40;;;;;;;5.32;2.35;;;;;;;2.55;98.64;101597.91;5046335;28;20036;-77
2023/03/05 06:14:07;;;;;;;10.43;3.50;;;;;;;2.52;98.46;101601.47;5041598;28;20040;-77
2023/03/05 06:16:33;;;;;;;9.43;2.55;;;;;;;2.50;98.91;101598.16;5043110;28;20021;-76
2023/03/05 06:19:03;;;;;;;9.05;2.58;;;;;;;2.50;98.92;101599.88;5026898;28;20033;-76
2023/03/05 06:21:28;;;;;;;7.90;2.15;;;;;;;2.51;99.22;101596.44;5043751;28;20058;-76
2023/03/05 06:23:54;;;;;;;19.15;2.80;;;;;;;2.53;99.29;101594.59;5045622;28;20033;-77
2023/03/05 06:26:21;;;;;;;17.98;2.92;;;;;;;2.56;99.36;101596.97;5027426;28;20078;-76
2023/03/05 06:28:46;;;;;;;15.98;3.17;;;;;;;2.69;99.10;101589.44;5026353;28;20032;-76
2023/03/05 06:31:18;;;;;;;13.60;3.55;;;;;;;2.61;99.10;101591.63;5042512;28;20070;-76
2023/03/05 06:33:44;;;;;;;10.63;2.65;;;;;;;2.58;99.36;101592.63;5043546;28;20051;-76
2023/03/05 06:36:12;;;;;;;12.88;3.10;;;;;;;2.59;99.57;101590.88;5040987;28;20086;-76
2023/03/05 06:38:38;;;;;;;8.38;2.85;;;;;;;2.52;99.73;101585.25;5044704;28;20094;-76
2023/03/05 06:41:08;;;;;;;18.98;3.17;;;;;;;2.52;100.00;101583.56;5030608;28;20111;-76
2023/03/05 06:43:36;;;;;;;11.65;2.80;;;;;;;2.53;100.00;101577.50;5047342;28;20333;-76
2023/03/05 06:46:25;;;;;;;14.75;2.75;;;;;;;2.61;100.00;101577.06;5031163;28;20843;-76
2023/03/05 06:48:53;;;;;;;11.85;2.90;;;;;;;2.59;100.00;101571.22;5049634;28;20025;-77
2023/03/05 06:51:22;;;;;;;10.50;3.67;;;;;;;2.60;100.00;101575.44;5035864;28;20168;-76
2023/03/05 06:53:48;;;;;;;13.13;4.00;;;;;;;2.70;100.00;101573.19;5031808;28;20032;-76
2023/03/05 06:56:15;;;;;;;11.88;3.78;;;;;;;2.63;100.00;101571.88;5046521;28;20016;-79
2023/03/05 06:58:42;;;;;;;23.38;6.00;;;;;;;2.63;100.00;101575.25;5061583;28;20545;-77
2023/03/05 07:01:08;;;;;;;16.17;3.90;;;;;;;2.68;100.00;101580.13;5049141;28;20029;-78
2023/03/05 07:03:35;;;;;;;14.75;3.85;;;;;;;2.69;100.00;101582.63;5030840;28;20038;-77
2023/03/05 07:06:05;;;;;;;18.98;3.88;;;;;;;2.64;100.00;101581.22;5045294;28;20036;-77
2023/03/05 07:08:31;;;;;;;19.65;5.30;;;;;;;2.65;100.00;101578.53;5042384;28;20094;-78
2023/03/05 07:10:57;;;;;;;13.02;3.50;;;;;;;2.69;100.00;101571.53;5062615;28;20081;-78
2023/03/05 07:13:23;;;;;;;18.50;5.10;;;;;;;2.80;100.00;101571.75;5029560;28;20024;-77
2023/03/05 07:15:48;;;;;;;14.63;4.03;;;;;;;2.78;100.00;101573.56;5044077;28;20048;-77
2023/03/05 07:18:14;;;;;;;18.20;3.67;;;;;;;2.85;100.00;101571.50;5045793;28;20048;-78
2023/03/05 07:20:39;;;;;;;7.80;3.53;;;;;;;2.71;100.00;101567.97;5048530;28;20029;-76
2023/03/05 07:23:05;;;;;;;16.80;3.75;;;;;;;2.80;100.00;101558.13;5065081;28;20106;-77
2023/03/05 07:25:31;;;;;;;14.35;4.03;;;;;;;2.75;100.00;101567.78;5051240;28;20028;-77
2023/03/05 07:27:56;;;;;;;16.05;3.65;;;;;;;2.87;100.00;101565.38;5031857;28;20437;-78
2023/03/05 07:30:22;;;;;;;12.90;3.92;;;;;;;2.82;100.00;101563.97;5046991;28;20044;-77
2023/03/05 07:32:48;;;;;;;15.50;4.20;;;;;;;2.78;100.00;101568.44;5049760;28;20024;-78
2023/03/05 07:35:13;;;;;;;13.40;4.28;;;;;;;2.81;100.00;101563.16;5033857;28;20025;-77
2023/03/05 07:37:39;;;;;;;17.15;4.20;;;;;;;2.86;100.00;101560.31;5047850;28;20033;-77
2023/03/05 07:40:06;;;;;;;9.57;3.45;;;;;;;2.92;100.00;101562.56;5032346;28;20106;-78
2023/03/05 07:42:32;;;;;;;13.73;3.50;;;;;;;2.99;100.00;101565.56;5035318;28;20115;-77
2023/03/05 07:45:09;;;;;;;17.70;3.33;;;;;;;2.93;100.00;101561.63;5047954;28;20036;-78
2023/03/05 07:47:35;;;;;;;14.10;4.15;;;;;;;2.95;100.00;101554.69;5051660;28;20036;-78
2023/03/05 07:50:02;;;;;;;20.55;4.93;;;;;;;2.99;100.00;101558.72;5034082;28;20036;-77
2023/03/05 07:52:28;;;;;;;19.73;4.20;;;;;;;3.14;100.00;101554.44;5050990;28;20037;-78
2023/03/05 07:54:53;;;;;;;14.02;5.10;;;;;;;3.18;100.00;101550.78;5048385;28;20035;-77
2023/03/05 07:57:19;;;;;;;11.57;4.25;;;;;;;3.34;99.75;101552.47;5046183;28;20045;-79
2023/03/05 07:59:44;;;;;;;33.20;10.80;;;;;;;3.27;99.86;101550.25;5050497;28;20497;-78
2023/03/05 08:02:11;;;;;;;35.80;8.93;;;;;;;3.19;99.43;101555.00;5053981;28;20032;-77
2023/03/05 08:04:37;;;;;;;26.98;8.45;;;;;;;3.22;99.39;101544.59;5050615;28;20168;-77
2023/03/05 08:15:14;;;;;;;16.63;5.90;;;;;;;3.55;97.74;101542.66;5069196;28;20039;-77
2023/03/05 08:17:39;;;;;;;19.40;4.87;;;;;;;3.65;98.04;101541.19;5049776;28;20098;-77
2023/03/05 08:20:09;;;;;;;23.50;7.43;;;;;;;3.61;96.78;101535.41;5030776;28;20036;-78
2023/03/05 08:22:36;;;;;;;21.65;6.75;;;;;;;3.66;96.32;101535.16;5045377;28;20083;-77
2023/03/05 08:51:36;;;;;;;14.05;4.60;;;;;;;4.04;97.73;101506.31;5065640;28;20179;-78
2023/03/05 08:54:05;;;;;;;20.65;4.70;;;;;;;3.95;97.69;101510.25;5035850;28;20037;-79
2023/03/05 09:04:19;;;;;;;18.50;5.80;;;;;;;3.83;100.00;101511.03;5033188;28;20097;-79
2023/03/05 09:06:44;;;;;;;15.68;8.27;;;;;;;3.80;100.00;101512.03;5046066;28;20033;-78
2023/03/05 09:09:11;;;;;;;23.27;6.47;;;;;;;3.76;100.00;101504.63;5047537;28;20044;-81
2023/03/05 09:11:36;;;;;;;19.85;6.68;;;;;;;3.80;100.00;101506.06;5031490;28;20032;-78
2023/03/05 09:14:03;;;;;;;14.35;6.47;;;;;;;3.71;100.00;101504.88;5047010;28;20085;-78
2023/03/05 09:16:29;;;;;;;29.73;10.45;;;;;;;3.67;100.00;101500.88;5049204;28;20945;-78
2023/03/05 09:18:55;;;;;;;38.45;11.35;;;;;;;3.63;100.00;101507.09;5047840;28;20028;-78
2023/03/05 09:21:20;;;;;;;25.95;9.73;;;;;;;3.58;100.00;101496.28;5039444;28;20055;-78
2023/03/05 09:23:46;;;;;;;27.08;9.07;;;;;;;3.77;100.00;101493.44;5045973;28;20045;-81
2023/03/05 09:26:14;;;;;;;78.80;29.58;;;;;;;3.73;100.00;101492.81;5049582;28;20043;-79
2023/03/05 09:28:41;;;;;;;47.50;18.33;;;;;;;3.68;100.00;101492.28;5022344;28;20057;-77
2023/03/05 09:31:09;;;;;;;98.60;40.45;;;;;;;3.72;100.00;101487.78;5043320;28;20494;-81
2023/03/05 09:33:36;;;;;;;47.47;20.02;;;;;;;3.50;100.00;101482.22;5046133;28;20035;-78
2023/03/05 09:36:03;;;;;;;28.63;11.45;;;;;;;3.48;100.00;101486.63;5049535;28;20559;-77
2023/03/05 09:38:29;;;;;;;58.85;23.67;;;;;;;3.61;100.00;101485.88;5031590;28;20044;-79
2023/03/05 09:41:06;;;;;;;22.92;10.40;;;;;;;3.54;100.00;101477.72;5046440;28;20020;-77
2023/03/05 09:43:48;;;;;;;20.70;8.60;;;;;;;3.51;100.00;101475.34;5045287;28;20063;-77
2023/03/05 09:46:25;;;;;;;16.55;8.10;;;;;;;3.43;100.00;101477.56;5047309;28;20482;-78
2023/03/05 09:48:58;;;;;;;16.65;8.27;;;;;;;3.46;100.00;101477.38;5057095;28;20044;-77
2023/03/05 09:51:26;;;;;;;;;;;;;;;3.37;100.00;101472.78;5051172;28;20035;-77
2023/03/05 09:54:10;;;;;;;19.17;8.55;;;;;;;3.36;100.00;101471.16;5064119;28;19927;-80
2023/03/05 09:56:40;;;;;;;17.67;8.55;;;;;;;3.37;100.00;101472.78;5036112;28;20039;-78
2023/03/05 09:59:27;;;;;;;16.13;7.80;;;;;;;3.31;100.00;101468.84;5046334;28;20047;-78
2023/03/05 10:02:00;;;;;;;14.00;8.52;;;;;;;3.36;100.00;101466.03;5028623;28;20028;-78
2023/03/05 10:35:04;;;;;;;20.73;9.50;;;;;;;4.53;100.00;101431.25;5063460;28;20039;-77
2023/03/05 10:37:53;;;;;;;18.02;8.23;;;;;;;4.50;100.00;101418.59;5066148;28;20035;-77
2023/03/05 10:40:39;;;;;;;15.27;8.10;;;;;;;4.52;100.00;101421.91;5031568;28;20052;-78
2023/03/05 10:54:28;;;;;;;26.42;11.63;;;;;;;4.57;100.00;101424.97;5061029;28;20111;-78
2023/03/05 10:57:13;;;;;;;20.23;8.52;;;;;;;4.71;100.00;101418.09;5046789;28;20740;-78
2023/03/05 10:59:46;;;;;;;71.40;20.23;;;;;;;4.57;99.63;101414.69;5048246;28;20049;-78
2023/03/05 11:02:11;;;;;;;149.65;34.75;;;;;;;4.44;100.00;101411.31;5046913;28;20068;-77
2023/03/05 11:04:39;;;;;;;60.45;17.75;;;;;;;4.51;99.85;101416.88;5044713;28;20043;-78
2023/03/05 11:07:30;;;;;;;145.45;32.70;;;;;;;4.57;99.36;101416.47;5032539;28;20034;-78
2023/03/05 11:28:51;;;;;;;13.70;7.50;;;;;;;4.85;99.58;101382.03;5066610;28;20166;-80
2023/03/05 11:31:17;;;;;;;12.48;6.28;;;;;;;4.93;100.00;101379.75;5049397;28;20575;-77
2023/03/05 12:31:36;;;;;;;76.13;24.35;;;;;;;5.33;90.31;101288.72;5063214;28;20075;-78
2023/03/05 12:34:38;;;;;;;14.13;5.87;;;;;;;5.20;90.46;101286.22;5051784;28;20089;-78
2023/03/05 12:37:14;;;;;;;77.82;25.85;;;;;;;5.32;91.12;101272.47;5032888;28;20379;-77
2023/03/05 12:39:43;;;;;;;50.47;20.02;;;;;;;5.23;91.19;101273.94;5042720;28;20127;-78
2023/03/05 12:42:27;;;;;;;234.73;76.55;;;;;;;5.28;90.33;101258.19;5053325;28;20032;-78
2023/03/05 12:45:08;;;;;;;54.83;20.27;;;;;;;5.14;90.61;101254.06;5052287;28;20082;-77
2023/03/05 12:47:54;;;;;;;21.38;9.50;;;;;;;5.13;89.97;101252.41;5045890;28;20052;-77
2023/03/05 12:50:26;;;;;;;11.43;4.63;;;;;;;5.18;90.48;101252.91;5019928;28;20488;-77
2023/03/05 12:53:16;;;;;;;10.73;5.50;;;;;;;5.04;90.24;101253.88;5032862;28;20025;-77
2023/03/05 12:55:56;;;;;;;16.45;7.10;;;;;;;5.03;91.03;101247.09;5050373;28;20115;-77
2023/03/05 12:58:39;;;;;;;6.88;4.18;;;;;;;5.01;91.57;101245.56;5043005;23;20080;-75
2023/03/05 13:01:10;;;;;;;6.13;4.03;;;;;;;5.03;91.61;101241.97;5037994;28;20029;-75
2023/03/05 13:03:47;;;;;;;11.55;5.13;;;;;;;5.10;92.57;101232.03;5026310;28;20041;-74
2023/03/05 13:48:17;;;;;;;119.90;32.60;;;;;;;5.46;92.08;101174.56;5029423;28;20493;-75
2023/03/05 13:50:43;;;;;;;70.90;21.27;;;;;;;5.47;90.89;101167.66;5011176;28;20792;-74
2023/03/05 13:53:18;;;;;;;79.88;23.52;;;;;;;5.38;91.23;101165.78;5009882;28;20045;-75
2023/03/05 13:55:44;;;;;;;48.45;16.38;;;;;;;5.28;92.12;101163.06;5023830;28;20095;-75
2023/03/05 13:58:47;;;;;;;18.98;7.70;;;;;;;5.29;92.40;101154.41;5016273;28;20510;-75
2023/03/05 14:01:23;;;;;;;20.85;8.35;;;;;;;5.25;92.38;101148.69;4985112;28;20484;-75
2023/03/05 14:03:50;;;;;;;11.10;6.60;;;;;;;5.26;93.17;101149.50;4989035;28;20570;-75
2023/03/05 14:06:19;;;;;;;11.00;6.85;;;;;;;5.22;92.57;101136.03;5010718;28;20128;-75
2023/03/05 14:08:49;;;;;;;9.07;5.10;;;;;;;5.28;92.86;101145.06;4996818;28;20484;-75
2023/03/05 14:11:17;;;;;;;24.50;12.30;;;;;;;5.24;91.84;101134.19;5007830;28;20040;-75
2023/03/05 14:13:44;;;;;;;8.35;5.07;;;;;;;5.30;90.67;101138.06;5002468;28;20125;-75
2023/03/05 14:16:24;;;;;;;6.38;3.65;;;;;;;5.19;91.83;101143.16;4989975;28;20075;-76
2023/03/05 14:19:03;;;;;;;5.53;2.70;;;;;;;5.10;91.39;101133.53;4988826;28;20097;-75
2023/03/05 14:21:49;;;;;;;5.72;2.38;;;;;;;5.03;91.45;101128.88;5002006;28;20033;-75
2023/03/05 14:24:25;;;;;;;6.22;2.95;;;;;;;5.08;91.55;101128.50;4983936;28;20435;-75
2023/03/05 14:27:13;;;;;;;8.07;3.33;;;;;;;5.22;90.97;101130.91;5010008;28;20042;-74
2023/03/05 14:29:45;;;;;;;5.55;2.17;;;;;;;5.15;91.09;101123.75;4987225;28;20038;-75
2023/03/05 14:32:37;;;;;;;7.70;2.85;;;;;;;5.14;91.89;101115.22;5007066;28;20029;-75
2023/03/05 14:35:04;;;;;;;4.20;2.20;;;;;;;5.12;92.04;101117.06;5001621;28;20049;-74
2023/03/05 14:37:35;;;;;;;3.72;2.08;;;;;;;5.10;92.88;101115.56;5002592;28;20034;-74
2023/03/05 14:40:05;;;;;;;4.40;2.20;;;;;;;5.07;92.16;101109.72;4990109;28;20052;-75
2023/03/05 14:42:35;;;;;;;4.03;2.20;;;;;;;5.02;91.87;101101.50;4982737;28;20037;-75
2023/03/05 14:45:14;;;;;;;2.92;2.08;;;;;;;5.00;91.80;101100.00;4983002;28;20033;-75
2023/03/05 14:47:40;;;;;;;6.47;2.78;;;;;;;5.02;92.20;101092.97;4989058;28;20471;-74
2023/03/05 14:50:10;;;;;;;7.45;3.33;;;;;;;5.03;92.70;101082.59;5001685;28;20096;-74
2023/03/05 14:52:37;;;;;;;12.00;4.88;;;;;;;5.06;92.69;101081.53;4988182;28;20026;-75